Rijkevorsel, Belgium
Current Conditions -  °F | °C
As of 9:55 AM on Monday 20 Oct 2014 (Local Time) from EHGR Reporting Station
Overcast Overcast  
Wind Chill: 14°   Ceiling: 4200
Heat Index: 14°   Visibility: 6mi
Dew Point: 12°   Wind: 7mph
Humidity: 88%   Direction: 230°SW
Pressure: 30"   Gusts: NA
Location:  51.35°N, 4.76°E
Report Text: EHGR 200755Z AUTO 23006KT 9999 FEW034 OVC042 14/12 Q1016 BLU 23010KT 9999 FEW015 BKN025
Loading
Personal Weather Stations






























Interactive Weather Map
Tropical Storm Tracking
New forecast layout! Learn more

10-Day Weather Forecast

Advertisements
Track Severe Weather on mobile